PWSweather.com
Personal Weather Stations
Station Observations
AS787
Cloppers Mill East, Germantown, MD 20874-2154

Cloppers Mill EastGermantown, MD 20874-2154

Lat: 39.1522, Lon: -77.2679

Elevation: 318

Station Type: 1-Wire

http://www.cloppermillweather.org/

High Low Average
Temperature 50.7°F10.4°C 45.7°F7.6°C 48.2°F9.0°C
Dew Point 49.9°F9.9°C 44.6°F7.0°C 47.3°F8.5°C
Winds Calm Calm Calm Calm Calm SWCalm SW
Wind Gusts -- -- --
Humidity 97% 96% 97%
Pressure 30.21 in1023.0 mb 30.09 in1019.0 mb -
Precipitation 0.00 in0.0 mm - -
Hour Temp Dew Point Humidity Winds Wind Gusts Pressure Precip Precip Rate Daily Precip Total
12:14 AM 45.5°F7.5°C 44.4°F6.9°C 96% Calm Calm -- 30.23 in1023.7 mb 0.00 in0.0 mm 0.00 in0.0 mm 0.00 in0.0 mm
12:44 AM 45.7°F7.6°C 44.6°F7.0°C 96% Calm Calm -- 30.22 in1023.4 mb 0.00 in0.0 mm 0.00 in0.0 mm 0.00 in0.0 mm
01:14 AM 45.7°F7.6°C 44.6°F7.0°C 96% Calm Calm -- 30.21 in1023.0 mb 0.00 in0.0 mm 0.00 in0.0 mm 0.00 in0.0 mm
01:44 AM 46.1°F7.8°C 45.0°F7.2°C 96% Calm Calm -- 30.21 in1023.0 mb 0.00 in0.0 mm 0.00 in0.0 mm 0.00 in0.0 mm
02:14 AM 46.4°F8.0°C 45.6°F7.6°C 97% Calm Calm -- 30.21 in1023.0 mb 0.00 in0.0 mm 0.00 in0.0 mm 0.00 in0.0 mm
02:44 AM 46.8°F8.2°C 46.0°F7.8°C 97% Calm Calm -- 30.20 in1022.7 mb 0.00 in0.0 mm 0.00 in0.0 mm 0.00 in0.0 mm
03:14 AM 47.0°F8.3°C 46.2°F7.9°C 97% Calm Calm -- 30.19 in1022.4 mb 0.00 in0.0 mm 0.00 in0.0 mm 0.00 in0.0 mm
03:44 AM 47.1°F8.4°C 46.3°F7.9°C 97% Calm Calm -- 30.17 in1021.7 mb 0.00 in0.0 mm 0.00 in0.0 mm 0.00 in0.0 mm
04:14 AM 47.3°F8.5°C 46.5°F8.1°C 97% Calm Calm -- 30.17 in1021.7 mb 0.00 in0.0 mm 0.00 in0.0 mm 0.00 in0.0 mm
04:44 AM 47.4°F8.6°C 46.6°F8.1°C 97% Calm Calm -- 30.15 in1021.0 mb 0.00 in0.0 mm 0.00 in0.0 mm 0.00 in0.0 mm
05:14 AM 47.4°F8.6°C 46.6°F8.1°C 97% Calm Calm -- 30.14 in1020.7 mb 0.00 in0.0 mm 0.00 in0.0 mm 0.00 in0.0 mm
05:44 AM 47.5°F8.6°C 46.7°F8.2°C 97% Calm Calm -- 30.14 in1020.7 mb 0.00 in0.0 mm 0.00 in0.0 mm 0.00 in0.0 mm
06:14 AM 47.4°F8.6°C 46.6°F8.1°C 97% Calm Calm -- 30.15 in1021.0 mb 0.00 in0.0 mm 0.00 in0.0 mm 0.00 in0.0 mm
06:44 AM 47.3°F8.5°C 46.5°F8.1°C 97% Calm Calm -- 30.14 in1020.7 mb 0.00 in0.0 mm 0.00 in0.0 mm 0.00 in0.0 mm
07:14 AM 47.3°F8.5°C 46.5°F8.1°C 97% Calm Calm -- 30.14 in1020.7 mb 0.00 in0.0 mm 0.00 in0.0 mm 0.00 in0.0 mm
07:44 AM 47.1°F8.4°C 46.3°F7.9°C 97% Calm Calm -- 30.14 in1020.7 mb 0.00 in0.0 mm 0.00 in0.0 mm 0.00 in0.0 mm
08:14 AM 47.3°F8.5°C 46.5°F8.1°C 97% Calm Calm -- 30.14 in1020.7 mb 0.00 in0.0 mm 0.00 in0.0 mm 0.00 in0.0 mm
08:44 AM 47.6°F8.7°C 46.8°F8.2°C 97% Calm Calm -- 30.15 in1021.0 mb 0.00 in0.0 mm 0.00 in0.0 mm 0.00 in0.0 mm
09:14 AM 47.9°F8.8°C 47.1°F8.4°C 97% Calm Calm -- 30.16 in1021.3 mb 0.00 in0.0 mm 0.00 in0.0 mm 0.00 in0.0 mm
09:44 AM 48.2°F9.0°C 47.4°F8.6°C 97% Calm Calm -- 30.16 in1021.3 mb 0.00 in0.0 mm 0.00 in0.0 mm 0.00 in0.0 mm
10:14 AM 48.5°F9.2°C 47.7°F8.7°C 97% Calm Calm -- 30.17 in1021.7 mb 0.00 in0.0 mm 0.00 in0.0 mm 0.00 in0.0 mm
10:44 AM 48.8°F9.3°C 48.0°F8.9°C 97% Calm Calm -- 30.16 in1021.3 mb 0.00 in0.0 mm 0.00 in0.0 mm 0.00 in0.0 mm
11:14 AM 49.1°F9.5°C 48.3°F9.1°C 97% Calm Calm -- 30.16 in1021.3 mb 0.01 in0.3 mm 0.02 in0.5 mm 0.01 in0.3 mm
11:44 AM 49.1°F9.5°C 48.3°F9.1°C 97% Calm Calm -- 30.15 in1021.0 mb 0.02 in0.5 mm 0.02 in0.5 mm 0.02 in0.5 mm
12:14 PM 49.2°F9.6°C 48.4°F9.1°C 97% Calm Calm -- 30.15 in1021.0 mb 0.02 in0.5 mm 0.00 in0.0 mm 0.02 in0.5 mm
12:44 PM 49.5°F9.7°C 48.7°F9.3°C 97% Calm Calm -- 30.14 in1020.7 mb 0.04 in1.0 mm 0.04 in1.0 mm 0.04 in1.0 mm
01:14 PM 49.8°F9.9°C 49.0°F9.4°C 97% Calm Calm -- 30.12 in1020.0 mb 0.01 in0.3 mm 0.00 in0.0 mm 0.04 in1.0 mm
01:44 PM 50.1°F10.1°C 49.3°F9.6°C 97% Calm Calm -- 30.14 in1020.7 mb 0.01 in0.3 mm 0.00 in0.0 mm 0.04 in1.0 mm
02:14 PM 50.1°F10.1°C 49.3°F9.6°C 97% Calm Calm -- 30.12 in1020.0 mb 0.00 in0.0 mm 0.00 in0.0 mm 0.04 in1.0 mm
02:44 PM 50.3°F10.2°C 49.5°F9.7°C 97% Calm Calm -- 30.11 in1019.6 mb 0.01 in0.3 mm 0.02 in0.5 mm 0.05 in1.3 mm
03:14 PM 50.7°F10.4°C 49.9°F9.9°C 97% Calm Calm -- 30.09 in1019.0 mb 0.00 in0.0 mm 0.00 in0.0 mm 0.05 in1.3 mm
03:44 PM 50.6°F10.3°C 49.8°F9.9°C 97% Calm Calm -- 30.09 in1019.0 mb 0.01 in0.3 mm 0.02 in0.5 mm 0.06 in1.5 mm
04:14 PM 50.6°F10.3°C 49.5°F9.7°C 96% Calm Calm -- 30.11 in1019.6 mb 0.01 in0.3 mm 0.00 in0.0 mm 0.06 in1.5 mm
04:44 PM 50.4°F10.2°C 49.3°F9.6°C 96% Calm Calm -- 30.12 in1020.0 mb 0.03 in0.8 mm 0.04 in1.0 mm 0.08 in2.0 mm
05:14 PM 50.3°F10.2°C 49.2°F9.6°C 96% Calm Calm -- 30.12 in1020.0 mb 0.00 in0.0 mm 0.00 in0.0 mm 0.08 in2.0 mm
05:44 PM 49.8°F9.9°C 48.7°F9.3°C 96% Calm Calm -- 30.10 in1019.3 mb 0.03 in0.8 mm 0.06 in1.5 mm 0.11 in2.8 mm
06:14 PM 49.5°F9.7°C 48.4°F9.1°C 96% Calm Calm -- 30.10 in1019.3 mb 0.00 in0.0 mm 0.00 in0.0 mm 0.11 in2.8 mm
06:44 PM 49.0°F9.4°C 47.9°F8.8°C 96% Calm Calm -- 30.11 in1019.6 mb 0.00 in0.0 mm 0.00 in0.0 mm 0.11 in2.8 mm
07:14 PM 48.7°F9.3°C 47.6°F8.7°C 96% Calm Calm -- 30.12 in1020.0 mb 0.00 in0.0 mm 0.00 in0.0 mm 0.11 in2.8 mm
07:44 PM 48.3°F9.1°C 47.2°F8.4°C 96% Calm Calm -- 30.14 in1020.7 mb 0.00 in0.0 mm 0.00 in0.0 mm 0.11 in2.8 mm
08:14 PM 48.0°F8.9°C 46.9°F8.3°C 96% Calm Calm -- 30.14 in1020.7 mb 0.00 in0.0 mm 0.00 in0.0 mm 0.11 in2.8 mm
08:44 PM 47.9°F8.8°C 46.8°F8.2°C 96% Calm Calm -- 30.14 in1020.7 mb 0.00 in0.0 mm 0.00 in0.0 mm 0.11 in2.8 mm
09:14 PM 47.7°F8.7°C 46.6°F8.1°C 96% Calm Calm -- 30.13 in1020.3 mb 0.00 in0.0 mm 0.00 in0.0 mm 0.11 in2.8 mm
09:44 PM 47.5°F8.6°C 46.4°F8.0°C 96% Calm Calm -- 30.13 in1020.3 mb 0.00 in0.0 mm 0.00 in0.0 mm 0.11 in2.8 mm
10:14 PM 47.4°F8.6°C 46.6°F8.1°C 97% Calm Calm -- 30.13 in1020.3 mb 0.00 in0.0 mm 0.00 in0.0 mm 0.11 in2.8 mm
10:44 PM 47.2°F8.4°C 46.4°F8.0°C 97% Calm Calm -- 30.13 in1020.3 mb 0.06 in1.5 mm 0.12 in3.0 mm 0.17 in4.3 mm
11:14 PM 47.1°F8.4°C 46.3°F7.9°C 97% Calm Calm -- 30.13 in1020.3 mb 0.00 in0.0 mm 0.00 in0.0 mm 0.17 in4.3 mm
11:44 PM 46.9°F8.3°C 46.1°F7.8°C 97% Calm Calm -- 30.11 in1019.6 mb 0.00 in0.0 mm 0.00 in0.0 mm 0.17 in4.3 mm